createdAt,value
2023-04-09T00:00:46.463Z,8.60
2023-04-09T00:03:33.844Z,8.56
2023-04-09T00:06:01.409Z,8.55
2023-04-09T00:08:28.445Z,8.57
2023-04-09T00:10:58.076Z,8.57
2023-04-09T00:13:35.588Z,8.55
2023-04-09T00:16:05.917Z,8.53
2023-04-09T00:18:32.921Z,8.51
2023-04-09T00:21:00.693Z,8.49
2023-04-09T00:23:27.857Z,8.47
2023-04-09T00:25:55.319Z,8.45
2023-04-09T00:28:22.346Z,8.45
2023-04-09T00:30:50.028Z,8.43
2023-04-09T00:33:17.038Z,8.43
2023-04-09T00:35:44.433Z,8.42
2023-04-09T00:38:11.711Z,8.40
2023-04-09T00:40:39.054Z,8.37
2023-04-09T00:43:06.852Z,8.36
2023-04-09T00:45:34.604Z,8.36
2023-04-09T00:48:02.108Z,8.35
2023-04-09T00:50:29.465Z,8.34
2023-04-09T00:52:56.639Z,8.33
2023-04-09T00:55:24.072Z,8.31
2023-04-09T00:57:51.162Z,8.30
2023-04-09T01:00:18.557Z,8.29
2023-04-09T01:02:46.620Z,8.28
2023-04-09T01:05:15.648Z,8.29
2023-04-09T01:08:08.544Z,8.29
2023-04-09T01:10:42.547Z,8.27
2023-04-09T01:13:16.009Z,8.24
2023-04-09T01:15:56.478Z,8.23
2023-04-09T01:18:27.153Z,8.22
2023-04-09T01:21:20.593Z,8.19
2023-04-09T01:24:17.975Z,8.20
2023-04-09T01:26:54.431Z,8.17
2023-04-09T01:29:23.108Z,8.15
2023-04-09T01:31:50.818Z,8.14
2023-04-09T01:34:20.198Z,8.12
2023-04-09T01:36:53.730Z,8.10
2023-04-09T01:39:21.306Z,8.11
2023-04-09T01:41:51.903Z,8.10
2023-04-09T01:44:20.174Z,8.10
2023-04-09T01:46:48.699Z,8.08
2023-04-09T01:49:17.219Z,8.08
2023-04-09T01:51:45.082Z,8.08
2023-04-09T01:54:12.070Z,8.06
2023-04-09T01:56:44.757Z,8.06
2023-04-09T01:59:15.366Z,8.04
2023-04-09T02:01:50.410Z,7.98
2023-04-09T02:04:26.989Z,7.94
2023-04-09T02:07:01.468Z,7.92
2023-04-09T02:09:31.172Z,7.88
2023-04-09T02:12:01.459Z,7.85
2023-04-09T02:14:29.502Z,7.85
2023-04-09T02:16:57.061Z,7.82
2023-04-09T02:19:24.306Z,7.83
2023-04-09T02:21:51.841Z,7.80
2023-04-09T02:24:18.833Z,7.80
2023-04-09T02:26:46.615Z,7.80
2023-04-09T02:29:13.626Z,7.81
2023-04-09T02:31:41.152Z,7.80
2023-04-09T02:34:08.167Z,7.80
2023-04-09T02:36:35.524Z,7.80
2023-04-09T02:39:02.457Z,7.79
2023-04-09T02:41:29.760Z,7.75
2023-04-09T02:43:56.773Z,7.76
2023-04-09T02:46:24.348Z,7.76
2023-04-09T02:48:51.681Z,7.76
2023-04-09T02:51:19.948Z,7.77
2023-04-09T02:53:46.980Z,7.78
2023-04-09T02:56:14.561Z,7.78
2023-04-09T02:58:41.519Z,7.79
2023-04-09T03:01:08.837Z,7.77
2023-04-09T03:03:37.587Z,7.76
2023-04-09T03:06:05.005Z,7.75
2023-04-09T03:08:31.949Z,7.76
2023-04-09T03:10:59.325Z,7.78
2023-04-09T03:13:27.991Z,7.76
2023-04-09T03:15:55.469Z,7.77
2023-04-09T03:18:22.506Z,7.77
2023-04-09T03:20:49.833Z,7.76
2023-04-09T03:23:17.252Z,7.75
2023-04-09T03:25:44.609Z,7.74
2023-04-09T03:28:11.634Z,7.74
2023-04-09T03:30:38.976Z,7.74
2023-04-09T03:33:05.978Z,7.73
2023-04-09T03:35:33.262Z,7.75
2023-04-09T03:38:00.404Z,7.76
2023-04-09T03:40:27.848Z,7.79
2023-04-09T03:42:54.870Z,7.80
2023-04-09T03:45:22.188Z,7.82
2023-04-09T03:47:49.182Z,7.83
2023-04-09T03:50:17.652Z,7.85
2023-04-09T03:52:44.614Z,7.85
2023-04-09T03:55:12.016Z,7.88
2023-04-09T03:57:38.950Z,7.96
2023-04-09T04:00:06.933Z,8.01
2023-04-09T04:02:34.248Z,8.08
2023-04-09T04:05:01.816Z,8.13
2023-04-09T04:07:28.967Z,8.17
2023-04-09T04:09:56.414Z,8.19
2023-04-09T04:12:24.849Z,8.22
2023-04-09T04:14:53.217Z,8.24
2023-04-09T04:17:22.417Z,8.21
2023-04-09T04:19:50.577Z,8.17
2023-04-09T04:22:18.619Z,8.17
2023-04-09T04:24:47.584Z,8.18
2023-04-09T04:27:14.848Z,8.19
2023-04-09T04:29:43.330Z,8.25
2023-04-09T04:32:12.183Z,8.34
2023-04-09T04:34:39.508Z,8.46
2023-04-09T04:37:07.859Z,8.62
2023-04-09T04:39:37.389Z,8.76
2023-04-09T04:42:04.420Z,8.89
2023-04-09T04:44:31.711Z,9.00
2023-04-09T04:46:58.966Z,9.11
2023-04-09T04:49:26.529Z,9.17
2023-04-09T04:54:37.883Z,9.16
2023-04-09T04:57:05.331Z,9.13
2023-04-09T04:59:32.805Z,9.10
2023-04-09T05:02:00.265Z,9.09
2023-04-09T05:04:27.842Z,9.12
2023-04-09T05:06:55.009Z,9.16
2023-04-09T05:09:24.253Z,9.23
2023-04-09T05:11:53.539Z,9.31
2023-04-09T05:14:26.154Z,9.37
2023-04-09T05:16:53.339Z,9.47
2023-04-09T05:19:21.041Z,9.61
2023-04-09T05:21:48.353Z,9.73
2023-04-09T05:24:15.681Z,9.81
2023-04-09T05:26:43.931Z,9.91
2023-04-09T05:29:13.996Z,10.04
2023-04-09T05:31:44.138Z,10.14
2023-04-09T05:34:16.786Z,10.19
2023-04-09T05:36:44.898Z,10.27
2023-04-09T05:39:12.422Z,10.34
2023-04-09T05:41:39.581Z,10.33
2023-04-09T05:44:08.421Z,10.37
2023-04-09T05:46:35.413Z,10.41
2023-04-09T05:49:03.364Z,10.50
2023-04-09T05:51:30.555Z,10.50
2023-04-09T05:54:02.217Z,10.51
2023-04-09T05:56:29.397Z,10.57
2023-04-09T05:58:57.044Z,10.61
2023-04-09T06:01:24.096Z,10.61
2023-04-09T06:03:52.861Z,10.64
2023-04-09T06:06:21.923Z,10.70
2023-04-09T06:08:49.536Z,10.85
2023-04-09T06:11:16.760Z,11.01
2023-04-09T06:13:44.351Z,11.14
2023-04-09T06:16:11.614Z,11.18
2023-04-09T06:18:39.190Z,11.28
2023-04-09T06:21:08.082Z,11.28
2023-04-09T06:23:36.586Z,11.16
2023-04-09T06:26:03.779Z,11.08
2023-04-09T06:28:32.461Z,11.07
2023-04-09T06:30:59.861Z,11.16
2023-04-09T06:33:28.470Z,11.28
2023-04-09T06:35:55.542Z,11.36
2023-04-09T06:38:23.489Z,11.48
2023-04-09T06:40:50.729Z,11.67
2023-04-09T06:43:18.373Z,11.77
2023-04-09T06:45:45.452Z,11.91
2023-04-09T06:48:12.986Z,12.00
2023-04-09T06:50:40.065Z,12.07
2023-04-09T06:53:07.445Z,12.12
2023-04-09T06:55:34.694Z,12.03
2023-04-09T06:58:03.120Z,12.02
2023-04-09T07:00:31.576Z,12.10
2023-04-09T07:03:00.419Z,12.19
2023-04-09T07:05:31.715Z,12.26
2023-04-09T07:08:00.578Z,12.40
2023-04-09T07:10:27.767Z,12.52
2023-04-09T07:12:55.358Z,12.46
2023-04-09T07:15:22.670Z,12.41
2023-04-09T07:17:50.376Z,12.51
2023-04-09T07:20:17.861Z,12.67
2023-04-09T07:22:46.211Z,12.88
2023-04-09T07:25:13.345Z,13.05
2023-04-09T07:27:40.754Z,13.15
2023-04-09T07:30:08.466Z,13.27
2023-04-09T07:32:36.036Z,13.52
2023-04-09T07:35:18.887Z,13.81
2023-04-09T07:37:56.848Z,13.90
2023-04-09T07:40:24.040Z,14.05
2023-04-09T07:42:51.626Z,14.26
2023-04-09T07:45:19.026Z,14.24
2023-04-09T07:47:47.069Z,14.28
2023-04-09T07:50:14.440Z,14.40
2023-04-09T07:52:42.997Z,14.46
2023-04-09T07:55:16.737Z,14.44
2023-04-09T07:57:57.807Z,14.50
2023-04-09T08:07:11.980Z,15.42
2023-04-09T08:09:40.127Z,15.69
2023-04-09T08:12:13.718Z,15.95
2023-04-09T08:14:57.707Z,16.27
2023-04-09T08:17:37.369Z,16.32
2023-04-09T08:20:05.655Z,15.85
2023-04-09T08:22:36.783Z,15.42
2023-04-09T08:25:07.747Z,15.29
2023-04-09T08:30:34.528Z,15.31
2023-04-09T08:33:03.192Z,15.38
2023-04-09T08:35:32.696Z,15.62
2023-04-09T08:38:30.664Z,15.84
2023-04-09T08:41:03.785Z,16.22
2023-04-09T08:43:47.279Z,16.43
2023-04-09T08:46:23.844Z,16.94
2023-04-09T08:48:52.635Z,17.37
2023-04-09T08:51:25.424Z,17.15
2023-04-09T08:54:06.317Z,17.17
2023-04-09T08:56:39.801Z,17.79
2023-04-09T08:59:12.064Z,18.19
2023-04-09T09:01:41.329Z,18.63
2023-04-09T09:04:10.814Z,18.91
2023-04-09T09:06:41.167Z,18.81
2023-04-09T09:09:22.393Z,18.55
2023-04-09T09:12:12.362Z,18.28
2023-04-09T09:14:44.362Z,18.10
2023-04-09T09:17:18.537Z,18.23
2023-04-09T09:19:48.453Z,18.40
2023-04-09T09:22:17.685Z,18.56
2023-04-09T09:24:52.829Z,18.66
2023-04-09T09:30:40.256Z,18.69
2023-04-09T09:33:12.244Z,18.91
2023-04-09T09:35:54.214Z,19.30
2023-04-09T09:38:22.034Z,19.52
2023-04-09T09:40:50.113Z,19.79
2023-04-09T09:43:19.641Z,19.48
2023-04-09T09:45:47.949Z,19.20
2023-04-09T09:48:19.617Z,19.24
2023-04-09T09:50:49.488Z,19.16
2023-04-09T09:53:22.971Z,19.44
2023-04-09T09:55:55.591Z,21.58
2023-04-09T09:58:33.762Z,22.71
2023-04-09T10:01:18.224Z,23.73
2023-04-09T10:03:53.610Z,25.03
2023-04-09T10:06:21.041Z,25.54
2023-04-09T10:08:53.222Z,25.15
2023-04-09T10:11:20.908Z,25.69
2023-04-09T10:13:56.892Z,26.70
2023-04-09T10:16:29.070Z,26.01
2023-04-09T10:19:02.777Z,26.28
2023-04-09T10:21:56.093Z,26.34
2023-04-09T10:24:24.080Z,25.65
2023-04-09T10:26:55.175Z,23.69
2023-04-09T10:29:52.575Z,21.80
2023-04-09T10:32:28.841Z,20.72
2023-04-09T10:35:25.349Z,21.65
2023-04-09T10:37:52.377Z,21.82
2023-04-09T10:40:22.286Z,20.80
2023-04-09T10:42:54.778Z,19.08
2023-04-09T10:45:23.188Z,18.12
2023-04-09T10:47:55.401Z,18.87
2023-04-09T10:50:30.334Z,21.27
2023-04-09T10:53:03.855Z,21.12
2023-04-09T10:55:49.840Z,20.49
2023-04-09T10:58:17.972Z,20.32
2023-04-09T11:00:48.456Z,18.80
2023-04-09T11:03:44.802Z,17.78
2023-04-09T11:06:17.810Z,17.54
2023-04-09T11:08:44.870Z,17.25
2023-04-09T11:11:14.395Z,17.07
2023-04-09T11:13:43.444Z,17.21
2023-04-09T11:16:24.081Z,17.03
2023-04-09T11:18:53.982Z,16.55
2023-04-09T11:21:28.403Z,16.18
2023-04-09T11:23:58.408Z,16.04
2023-04-09T11:26:36.573Z,15.97
2023-04-09T11:29:10.394Z,15.99
2023-04-09T11:31:38.615Z,15.99
2023-04-09T11:34:05.660Z,15.92
2023-04-09T11:36:41.838Z,15.96
2023-04-09T11:39:09.206Z,15.91
2023-04-09T11:44:38.619Z,15.63
2023-04-09T11:47:07.876Z,15.58
2023-04-09T11:49:36.291Z,15.51
2023-04-09T11:52:05.488Z,15.63
2023-04-09T11:54:35.154Z,15.89
2023-04-09T11:57:09.703Z,16.35
2023-04-09T11:59:40.049Z,16.79
2023-04-09T12:02:08.318Z,16.07
2023-04-09T12:04:36.399Z,15.59
2023-04-09T12:07:08.332Z,15.33
2023-04-09T12:09:47.839Z,15.22
2023-04-09T12:12:19.887Z,15.15
2023-04-09T12:14:47.911Z,15.06
2023-04-09T12:17:16.429Z,14.93
2023-04-09T12:19:43.836Z,14.82
2023-04-09T12:22:19.040Z,14.70
2023-04-09T12:24:49.317Z,14.55
2023-04-09T12:27:18.043Z,14.44
2023-04-09T12:29:53.057Z,14.44
2023-04-09T12:32:22.638Z,14.41
2023-04-09T12:34:50.193Z,14.37
2023-04-09T12:40:25.403Z,14.34
2023-04-09T12:42:53.150Z,14.33
2023-04-09T12:45:21.909Z,14.46
2023-04-09T12:47:50.839Z,14.87
2023-04-09T12:50:17.979Z,15.40
2023-04-09T12:52:47.436Z,16.34
2023-04-09T12:55:14.959Z,17.08
2023-04-09T12:57:48.120Z,17.79
2023-04-09T13:00:16.483Z,18.25
2023-04-09T13:02:52.141Z,17.44
2023-04-09T13:05:22.422Z,16.85
2023-04-09T13:07:50.383Z,16.98
2023-04-09T13:10:20.071Z,17.01
2023-04-09T13:12:51.701Z,16.85
2023-04-09T13:15:18.969Z,16.76
2023-04-09T13:17:47.096Z,16.80
2023-04-09T13:20:14.336Z,16.61
2023-04-09T13:22:48.889Z,16.58
2023-04-09T13:25:16.772Z,16.27
2023-04-09T13:27:44.482Z,16.09
2023-04-09T13:30:15.877Z,16.08
2023-04-09T13:32:57.772Z,15.93
2023-04-09T13:35:24.961Z,16.07
2023-04-09T13:37:52.649Z,16.13
2023-04-09T13:40:22.351Z,16.18
2023-04-09T13:42:50.915Z,16.21
2023-04-09T13:45:20.403Z,16.34
2023-04-09T13:47:48.442Z,16.26
2023-04-09T13:50:17.465Z,16.17
2023-04-09T13:52:48.489Z,15.81
2023-04-09T13:55:15.482Z,15.69
2023-04-09T13:57:42.963Z,15.71
2023-04-09T14:00:10.636Z,15.72
2023-04-09T14:02:38.153Z,15.68
2023-04-09T14:05:06.150Z,15.58
2023-04-09T14:07:34.516Z,15.63
2023-04-09T14:10:02.950Z,15.73
2023-04-09T14:12:56.973Z,15.40
2023-04-09T14:15:25.610Z,15.16
2023-04-09T14:17:54.046Z,15.03
2023-04-09T14:20:21.442Z,14.95
2023-04-09T14:22:50.029Z,14.92
2023-04-09T14:25:17.425Z,14.94
2023-04-09T14:27:45.979Z,14.99
2023-04-09T14:30:14.358Z,15.04
2023-04-09T14:32:43.264Z,15.06
2023-04-09T14:35:10.900Z,15.03
2023-04-09T14:37:43.782Z,15.03
2023-04-09T14:40:14.568Z,14.97
2023-04-09T14:42:42.529Z,14.98
2023-04-09T14:45:12.536Z,14.96
2023-04-09T14:47:40.765Z,14.94
2023-04-09T14:50:12.916Z,14.93
2023-04-09T14:52:41.153Z,14.83
2023-04-09T14:55:17.099Z,14.57
2023-04-09T14:58:07.387Z,14.35
2023-04-09T15:00:39.596Z,14.15
2023-04-09T15:03:18.610Z,14.09
2023-04-09T15:05:48.632Z,13.99
2023-04-09T15:08:17.196Z,13.78
2023-04-09T15:10:44.387Z,13.55
2023-04-09T15:13:11.918Z,13.37
2023-04-09T15:15:40.880Z,13.16
2023-04-09T15:18:16.851Z,12.99
2023-04-09T15:20:45.963Z,12.91
2023-04-09T15:23:16.463Z,12.86
2023-04-09T15:25:44.710Z,12.73
2023-04-09T15:28:15.306Z,12.62
2023-04-09T15:30:45.878Z,12.54
2023-04-09T15:33:13.504Z,12.50
2023-04-09T15:35:54.527Z,12.46
2023-04-09T15:38:25.240Z,12.44
2023-04-09T15:40:53.025Z,12.35
2023-04-09T15:43:20.997Z,12.24
2023-04-09T15:45:48.818Z,12.13
2023-04-09T15:48:16.290Z,12.05
2023-04-09T15:50:43.517Z,12.01
2023-04-09T15:53:11.937Z,11.96
2023-04-09T15:55:39.201Z,11.91
2023-04-09T15:58:06.553Z,11.87
2023-04-09T16:00:33.997Z,11.83
2023-04-09T16:03:01.838Z,11.78
2023-04-09T16:05:30.509Z,11.73
2023-04-09T16:08:00.205Z,11.71
2023-04-09T16:10:27.625Z,11.69
2023-04-09T16:12:55.671Z,11.66
2023-04-09T16:15:28.865Z,11.61
2023-04-09T16:17:57.161Z,11.54
2023-04-09T16:20:30.000Z,11.51
2023-04-09T16:23:01.462Z,11.50
2023-04-09T16:25:28.902Z,11.53
2023-04-09T16:27:57.459Z,11.53
2023-04-09T16:30:25.590Z,11.52
2023-04-09T16:35:45.822Z,11.55
2023-04-09T16:38:15.950Z,11.54
2023-04-09T16:40:49.414Z,11.56
2023-04-09T16:43:21.874Z,11.59
2023-04-09T16:45:52.763Z,11.57
2023-04-09T16:48:23.470Z,11.57
2023-04-09T16:50:52.735Z,11.54
2023-04-09T16:53:20.895Z,11.51
2023-04-09T16:55:51.103Z,11.46
2023-04-09T16:58:20.616Z,11.42
2023-04-09T17:00:50.579Z,11.41
2023-04-09T17:03:19.826Z,11.41
2023-04-09T17:05:49.969Z,11.40
2023-04-09T17:08:18.469Z,11.41
2023-04-09T17:10:46.930Z,11.39
2023-04-09T17:13:14.762Z,11.38
2023-04-09T17:15:42.590Z,11.35
2023-04-09T17:18:10.780Z,11.34
2023-04-09T17:20:40.820Z,11.31
2023-04-09T17:23:08.774Z,11.35
2023-04-09T17:25:35.826Z,11.34
2023-04-09T17:28:05.050Z,11.31
2023-04-09T17:30:33.344Z,11.30
2023-04-09T17:33:01.834Z,11.30
2023-04-09T17:35:33.770Z,11.28
2023-04-09T17:38:01.845Z,11.24
2023-04-09T17:40:29.458Z,11.17
2023-04-09T17:42:58.283Z,11.06
2023-04-09T17:45:25.422Z,11.00
2023-04-09T17:47:53.000Z,10.97
2023-04-09T17:50:22.407Z,10.91
2023-04-09T17:52:50.786Z,10.84
2023-04-09T17:55:19.889Z,10.74
2023-04-09T17:57:51.746Z,10.69
2023-04-09T18:00:24.698Z,10.64
2023-04-09T18:02:54.078Z,10.62
2023-04-09T18:05:22.209Z,10.60
2023-04-09T18:07:50.307Z,10.62
2023-04-09T18:10:18.381Z,10.60
2023-04-09T18:12:46.142Z,10.53
2023-04-09T18:15:13.333Z,10.52
2023-04-09T18:17:41.025Z,10.51
2023-04-09T18:20:10.380Z,10.50
2023-04-09T18:25:25.650Z,10.55
2023-04-09T18:28:19.989Z,10.52
2023-04-09T18:30:47.180Z,10.47
2023-04-09T18:33:16.954Z,10.41
2023-04-09T18:35:54.249Z,10.37
2023-04-09T18:38:24.257Z,10.31
2023-04-09T18:41:08.709Z,10.29
2023-04-09T18:43:36.174Z,10.27
2023-04-09T18:46:16.984Z,10.25
2023-04-09T18:52:02.962Z,10.23
2023-04-09T18:54:33.821Z,10.23
2023-04-09T18:57:06.391Z,10.25
2023-04-09T18:59:36.001Z,10.27
2023-04-09T19:02:07.286Z,10.29
2023-04-09T19:07:51.055Z,10.28
2023-04-09T19:10:25.104Z,10.29
2023-04-09T19:13:08.979Z,10.29
2023-04-09T19:15:39.229Z,10.27
2023-04-09T19:18:06.939Z,10.27
2023-04-09T19:20:45.609Z,10.26
2023-04-09T19:23:30.404Z,10.26
2023-04-09T19:26:23.128Z,10.25
2023-04-09T19:28:52.831Z,10.24
2023-04-09T19:31:21.354Z,10.24
2023-04-09T19:33:48.525Z,10.21
2023-04-09T19:36:16.063Z,10.22
2023-04-09T19:38:43.362Z,10.21
2023-04-09T19:41:11.578Z,10.19
2023-04-09T19:43:46.929Z,10.22
2023-04-09T19:46:27.492Z,10.23
2023-04-09T19:48:57.312Z,10.23
2023-04-09T19:51:25.134Z,10.21
2023-04-09T19:53:52.264Z,10.22
2023-04-09T19:56:19.695Z,10.22
2023-04-09T19:58:46.755Z,10.21
2023-04-09T20:01:14.471Z,10.23
2023-04-09T20:03:41.869Z,10.20
2023-04-09T20:06:11.334Z,10.13
2023-04-09T20:08:38.473Z,10.10
2023-04-09T20:11:09.991Z,10.06
2023-04-09T20:13:49.131Z,10.02
2023-04-09T20:16:17.894Z,9.99
2023-04-09T20:18:45.269Z,9.95
2023-04-09T20:21:16.109Z,9.93
2023-04-09T20:23:45.244Z,9.87
2023-04-09T20:26:13.883Z,9.89
2023-04-09T20:28:41.951Z,9.84
2023-04-09T20:31:11.641Z,9.76
2023-04-09T20:33:38.974Z,9.71
2023-04-09T20:36:17.839Z,9.65
2023-04-09T20:38:52.982Z,9.67
2023-04-09T20:41:25.885Z,9.64
2023-04-09T20:43:53.478Z,9.61
2023-04-09T20:46:24.725Z,9.59
2023-04-09T20:48:51.866Z,9.55
2023-04-09T20:51:19.761Z,9.50
2023-04-09T20:53:49.783Z,9.51
2023-04-09T20:56:18.605Z,9.48
2023-04-09T20:58:46.885Z,9.49
2023-04-09T21:01:16.438Z,9.45
2023-04-09T21:03:44.043Z,9.42
2023-04-09T21:06:12.983Z,9.37
2023-04-09T21:08:43.801Z,9.32
2023-04-09T21:11:12.057Z,9.22
2023-04-09T21:13:54.019Z,9.21
2023-04-09T21:16:23.968Z,9.16
2023-04-09T21:18:51.616Z,9.12
2023-04-09T21:21:19.294Z,9.08
2023-04-09T21:23:46.308Z,9.01
2023-04-09T21:26:15.598Z,8.97
2023-04-09T21:28:42.948Z,8.93
2023-04-09T21:31:15.037Z,8.88
2023-04-09T21:33:44.149Z,8.82
2023-04-09T21:36:21.682Z,8.78
2023-04-09T21:38:49.099Z,8.73
2023-04-09T21:41:18.436Z,8.70
2023-04-09T21:43:45.531Z,8.67
2023-04-09T21:48:41.482Z,8.60
2023-04-09T21:51:12.404Z,8.56
2023-04-09T21:53:40.008Z,8.47
2023-04-09T21:56:09.435Z,8.40
2023-04-09T21:58:36.781Z,8.30
2023-04-09T22:01:05.123Z,8.24
2023-04-09T22:03:32.993Z,8.18
2023-04-09T22:06:00.464Z,8.10
2023-04-09T22:08:27.462Z,8.01
2023-04-09T22:10:56.614Z,7.95
2023-04-09T22:13:23.810Z,7.89
2023-04-09T22:15:51.380Z,7.87
2023-04-09T22:18:18.413Z,7.84
2023-04-09T22:20:45.742Z,7.77
2023-04-09T22:23:12.762Z,7.73
2023-04-09T22:25:40.388Z,7.69
2023-04-09T22:28:07.525Z,7.65
2023-04-09T22:30:35.441Z,7.60
2023-04-09T22:33:02.760Z,7.55
2023-04-09T22:35:31.624Z,7.44
2023-04-09T22:37:59.710Z,7.33
2023-04-09T22:40:27.023Z,7.28
2023-04-09T22:42:54.060Z,7.24
2023-04-09T22:45:21.399Z,7.20
2023-04-09T22:47:48.399Z,7.16
2023-04-09T22:50:15.905Z,7.13
2023-04-09T22:52:43.446Z,7.08
2023-04-09T22:55:11.668Z,7.08
2023-04-09T22:57:41.189Z,7.07
2023-04-09T23:00:09.589Z,7.03
2023-04-09T23:02:37.231Z,6.96
2023-04-09T23:05:05.352Z,6.91
2023-04-09T23:07:33.616Z,6.85
2023-04-09T23:10:01.768Z,6.80
2023-04-09T23:12:28.815Z,6.76
2023-04-09T23:14:56.103Z,6.71
2023-04-09T23:17:24.583Z,6.63
2023-04-09T23:19:54.850Z,6.52
2023-04-09T23:22:21.829Z,6.44
2023-04-09T23:24:49.072Z,6.34
2023-04-09T23:27:16.130Z,6.27
2023-04-09T23:29:44.099Z,6.21
2023-04-09T23:32:11.149Z,6.14
2023-04-09T23:34:38.529Z,6.10
2023-04-09T23:37:05.576Z,6.09
2023-04-09T23:39:32.912Z,6.09
2023-04-09T23:42:00.013Z,6.05
2023-04-09T23:44:27.370Z,5.98
2023-04-09T23:46:54.467Z,5.93
2023-04-09T23:49:21.872Z,5.90
2023-04-09T23:51:51.533Z,5.84
2023-04-09T23:54:19.402Z,5.83
2023-04-09T23:56:47.018Z,5.83
2023-04-09T23:59:14.330Z,5.80
